Decoded Metar for YGLA ( in ) (IATA:) | Meteo·Mobile Aviation Weather
aviador You're here:

YGLA Decoded Metar

in
Report Time2018-08-18 15:30:00
UTC Time2018-08-18 15:44:58
Flight Rules lifr LIFR
Wind200° at 02 kt
W.Decomp.*RWY 28: 0.3 kt HW 2 kt LCW
W.Rank200° ranks 12
Current wind is below 200° avg. (4.4)
Visibility0250 m
Phenomena:N/A
Clouds:Overcast 001 Hf
Expected CloudBase > 400 ft AGL from Temp-Dew spread
Ceiling100 ft
Temp16°C
Dew Point15°C (94% RH)
QNH1015 hPa
Raw Report
METAR YGLA 181530Z AUTO 20002KT 0250 // OVC001 16/15 Q1015
RF00.0/000.0=

Extra information for YGLA:More info

Social comments